Airport View

Enter AWOS ICAO identifier for current METAR.

ex. KFNL

KBKF 191958Z 11006G16KT 10SM FEW100 SCT220 35/M02 A3012 RMK AO2A SLP110 T03521025

19 Aug 2019 20:26

Other Area AWOS: KAPA - KDEN - KFTG - KBJC

TAF KBKF 191704Z 1917/2023 30009KT 9999 FEW100 QNH3007INS BECMG 2002/2003 16006KT 9999 SCT120 QNH3008INS TEMPO 2021/2023 VRB30G40KT 6000 -TSRA BKN080CB TX34/1921Z TN18/2011Z